createdAt,value
2023-02-05T00:01:13.382Z,80.90
2023-02-05T00:03:42.705Z,80.40
2023-02-05T00:06:12.738Z,80.80
2023-02-05T00:08:41.025Z,80.10
2023-02-05T00:11:10.382Z,80.50
2023-02-05T00:13:39.487Z,81.00
2023-02-05T00:16:14.322Z,80.90
2023-02-05T00:18:42.901Z,81.10
2023-02-05T00:21:11.413Z,81.30
2023-02-05T00:23:40.321Z,81.20
2023-02-05T00:26:10.745Z,81.50
2023-02-05T00:28:39.711Z,81.30
2023-02-05T00:31:13.975Z,80.80
2023-02-05T00:33:42.682Z,81.00
2023-02-05T00:36:12.975Z,81.00
2023-02-05T00:38:42.045Z,81.10
2023-02-05T00:41:10.545Z,80.40
2023-02-05T00:43:38.895Z,80.50
2023-02-05T00:46:07.775Z,80.20
2023-02-05T00:48:37.573Z,80.20
2023-02-05T00:51:06.426Z,79.90
2023-02-05T00:53:34.780Z,79.40
2023-02-05T00:56:03.116Z,78.30
2023-02-05T00:58:31.483Z,78.80
2023-02-05T01:00:59.869Z,78.40
2023-02-05T01:03:28.240Z,78.30
2023-02-05T01:05:58.262Z,78.20
2023-02-05T01:08:26.606Z,78.90
2023-02-05T01:10:56.849Z,78.00
2023-02-05T01:13:25.204Z,77.60
2023-02-05T01:15:53.482Z,78.00
2023-02-05T01:18:21.956Z,77.60
2023-02-05T01:20:50.304Z,78.00
2023-02-05T01:23:19.991Z,78.30
2023-02-05T01:25:48.243Z,78.30
2023-02-05T01:28:16.799Z,78.20
2023-02-05T01:30:49.041Z,78.20
2023-02-05T01:33:17.684Z,78.30
2023-02-05T01:35:46.324Z,78.20
2023-02-05T01:38:15.290Z,78.70
2023-02-05T01:40:44.950Z,78.80
2023-02-05T01:43:14.822Z,78.80
2023-02-05T01:45:52.502Z,78.90
2023-02-05T01:48:26.404Z,78.60
2023-02-05T01:51:00.147Z,78.40
2023-02-05T01:53:32.672Z,78.50
2023-02-05T01:56:05.230Z,78.30
2023-02-05T01:58:38.180Z,78.80
2023-02-05T02:01:07.032Z,78.50
2023-02-05T02:03:35.404Z,78.00
2023-02-05T02:06:05.008Z,77.70
2023-02-05T02:08:33.935Z,77.00
2023-02-05T02:11:06.182Z,77.00
2023-02-05T02:13:36.202Z,76.70
2023-02-05T02:16:05.914Z,77.00
2023-02-05T02:18:36.488Z,77.20
2023-02-05T02:21:38.074Z,76.60
2023-02-05T02:24:18.846Z,76.50
2023-02-05T02:27:02.886Z,76.40
2023-02-05T02:29:38.743Z,76.10
2023-02-05T02:32:15.436Z,74.80
2023-02-05T02:34:49.729Z,74.30
2023-02-05T02:37:25.477Z,74.20
2023-02-05T02:39:59.067Z,73.70
2023-02-05T02:42:34.311Z,73.20
2023-02-05T02:45:06.824Z,72.30
2023-02-05T02:47:40.035Z,72.30
2023-02-05T02:50:14.446Z,72.30
2023-02-05T02:52:46.027Z,71.50
2023-02-05T02:55:17.246Z,71.00
2023-02-05T02:57:49.077Z,70.70
2023-02-05T03:00:22.404Z,69.80
2023-02-05T03:02:53.567Z,70.10
2023-02-05T03:05:24.964Z,69.80
2023-02-05T03:07:57.751Z,69.70
2023-02-05T03:10:31.420Z,69.50
2023-02-05T03:12:59.799Z,69.40
2023-02-05T03:15:29.608Z,68.20
2023-02-05T03:17:58.033Z,67.90
2023-02-05T03:20:29.409Z,68.20
2023-02-05T03:22:58.360Z,67.90
2023-02-05T03:25:29.387Z,67.40
2023-02-05T03:27:58.966Z,66.90
2023-02-05T03:30:33.967Z,66.80
2023-02-05T03:33:15.241Z,66.20
2023-02-05T03:35:47.724Z,66.00
2023-02-05T03:38:32.691Z,66.30
2023-02-05T03:41:06.312Z,66.10
2023-02-05T03:43:49.081Z,65.70
2023-02-05T03:46:21.145Z,64.90
2023-02-05T03:49:04.478Z,66.10
2023-02-05T03:51:39.533Z,65.50
2023-02-05T03:54:14.113Z,65.20
2023-02-05T03:56:51.722Z,65.70
2023-02-05T03:59:21.242Z,65.40
2023-02-05T04:01:51.260Z,65.70
2023-02-05T04:04:19.839Z,65.80
2023-02-05T04:06:49.207Z,65.40
2023-02-05T04:09:17.477Z,65.20
2023-02-05T04:11:45.738Z,65.80
2023-02-05T04:14:14.060Z,65.50
2023-02-05T04:16:42.399Z,65.40
2023-02-05T04:19:12.132Z,66.20
2023-02-05T04:21:40.389Z,65.90
2023-02-05T04:24:09.349Z,65.70
2023-02-05T04:26:37.730Z,65.10
2023-02-05T04:29:06.036Z,65.70
2023-02-05T04:31:34.385Z,65.50
2023-02-05T04:34:02.731Z,65.40
2023-02-05T04:36:32.523Z,65.70
2023-02-05T04:39:00.814Z,65.50
2023-02-05T04:41:29.103Z,65.70
2023-02-05T04:43:57.460Z,66.30
2023-02-05T04:46:25.751Z,65.90
2023-02-05T04:48:53.996Z,66.30
2023-02-05T04:51:22.300Z,66.60
2023-02-05T04:53:52.016Z,66.50
2023-02-05T04:56:20.296Z,66.20
2023-02-05T04:58:48.592Z,66.10
2023-02-05T05:01:18.667Z,66.00
2023-02-05T05:03:47.292Z,66.60
2023-02-05T05:06:16.055Z,66.40
2023-02-05T05:08:44.780Z,66.40
2023-02-05T05:11:20.185Z,66.40
2023-02-05T05:13:49.362Z,66.90
2023-02-05T05:16:17.643Z,67.20
2023-02-05T05:18:46.003Z,67.00
2023-02-05T05:21:14.396Z,67.40
2023-02-05T05:23:42.657Z,67.00
2023-02-05T05:26:14.613Z,67.40
2023-02-05T05:28:42.976Z,67.90
2023-02-05T05:31:14.416Z,68.10
2023-02-05T05:33:42.735Z,68.00
2023-02-05T05:36:11.310Z,67.80
2023-02-05T05:38:39.873Z,67.90
2023-02-05T05:41:27.851Z,68.00
2023-02-05T05:43:57.604Z,68.00
2023-02-05T05:46:27.181Z,67.60
2023-02-05T05:48:57.243Z,68.00
2023-02-05T05:51:26.875Z,68.30
2023-02-05T05:53:55.780Z,68.40
2023-02-05T05:56:24.192Z,68.40
2023-02-05T05:58:52.676Z,68.00
2023-02-05T06:01:23.070Z,68.20
2023-02-05T06:03:51.954Z,67.90
2023-02-05T06:06:20.366Z,67.40
2023-02-05T06:08:48.709Z,67.70
2023-02-05T06:11:16.983Z,68.00
2023-02-05T06:13:45.239Z,68.10
2023-02-05T06:16:13.606Z,67.90
2023-02-05T06:18:43.309Z,67.50
2023-02-05T06:21:11.588Z,67.40
2023-02-05T06:23:39.914Z,67.60
2023-02-05T06:26:08.270Z,67.90
2023-02-05T06:28:36.671Z,68.10
2023-02-05T06:31:05.389Z,67.60
2023-02-05T06:33:33.760Z,67.80
2023-02-05T06:36:03.505Z,67.20
2023-02-05T06:38:31.874Z,67.20
2023-02-05T06:41:00.263Z,66.90
2023-02-05T06:43:28.557Z,67.20
2023-02-05T06:45:56.857Z,67.30
2023-02-05T06:48:25.209Z,66.40
2023-02-05T06:50:53.547Z,65.40
2023-02-05T06:53:23.317Z,64.70
2023-02-05T06:55:51.569Z,64.40
2023-02-05T06:58:19.897Z,64.60
2023-02-05T07:00:48.188Z,65.00
2023-02-05T07:03:16.498Z,64.80
2023-02-05T07:05:44.801Z,64.90
2023-02-05T07:08:14.950Z,65.20
2023-02-05T07:10:44.676Z,64.70
2023-02-05T07:13:13.074Z,64.20
2023-02-05T07:15:41.414Z,64.70
2023-02-05T07:18:09.701Z,65.50
2023-02-05T07:20:38.534Z,64.30
2023-02-05T07:23:08.118Z,64.40
2023-02-05T07:25:38.131Z,64.10
2023-02-05T07:28:09.555Z,64.40
2023-02-05T07:30:38.253Z,64.90
2023-02-05T07:33:06.807Z,64.10
2023-02-05T07:35:39.396Z,64.00
2023-02-05T07:38:07.759Z,64.80
2023-02-05T07:40:37.927Z,64.80
2023-02-05T07:43:07.595Z,65.60
2023-02-05T07:45:36.177Z,65.70
2023-02-05T07:48:05.043Z,65.70
2023-02-05T07:50:33.444Z,65.00
2023-02-05T07:53:01.716Z,64.70
2023-02-05T07:55:29.978Z,65.40
2023-02-05T07:57:58.308Z,65.10
2023-02-05T08:00:28.016Z,65.60
2023-02-05T08:02:56.337Z,65.40
2023-02-05T08:05:24.713Z,65.80
2023-02-05T08:07:53.007Z,65.20
2023-02-05T08:10:21.765Z,65.10
2023-02-05T08:12:50.074Z,64.30
2023-02-05T08:15:18.640Z,62.10
2023-02-05T08:17:48.347Z,62.40
2023-02-05T08:20:17.008Z,62.20
2023-02-05T08:22:45.589Z,61.00
2023-02-05T08:25:16.003Z,61.50
2023-02-05T08:27:46.193Z,61.40
2023-02-05T08:30:17.061Z,61.90
2023-02-05T08:32:51.048Z,61.00
2023-02-05T08:35:19.681Z,60.50
2023-02-05T08:37:48.053Z,61.10
2023-02-05T08:40:16.392Z,60.30
2023-02-05T08:42:44.694Z,60.30
2023-02-05T08:45:13.017Z,59.10
2023-02-05T08:47:41.270Z,59.80
2023-02-05T08:50:11.774Z,59.10
2023-02-05T08:52:40.148Z,58.00
2023-02-05T08:55:08.745Z,57.60
2023-02-05T08:57:37.199Z,57.70
2023-02-05T09:00:06.677Z,57.40
2023-02-05T09:02:35.045Z,56.90
2023-02-05T09:05:08.791Z,56.70
2023-02-05T09:07:39.514Z,57.20
2023-02-05T09:10:09.294Z,57.70
2023-02-05T09:12:37.827Z,56.00
2023-02-05T09:15:06.670Z,56.30
2023-02-05T09:17:41.104Z,57.00
2023-02-05T09:20:10.518Z,56.10
2023-02-05T09:22:40.198Z,55.50
2023-02-05T09:25:09.530Z,55.50
2023-02-05T09:27:37.938Z,55.40
2023-02-05T09:30:06.771Z,55.80
2023-02-05T09:32:35.022Z,55.60
2023-02-05T09:35:03.353Z,55.80
2023-02-05T09:37:31.663Z,56.00
2023-02-05T09:42:59.645Z,56.10
2023-02-05T09:45:40.242Z,56.50
2023-02-05T09:48:34.544Z,55.30
2023-02-05T09:51:03.548Z,55.90
2023-02-05T09:53:37.904Z,54.40
2023-02-05T09:56:10.747Z,53.10
2023-02-05T09:58:43.272Z,53.10
2023-02-05T10:01:19.314Z,53.30
2023-02-05T10:03:50.788Z,53.00
2023-02-05T10:06:40.214Z,53.70
2023-02-05T10:09:18.632Z,53.10
2023-02-05T10:11:55.909Z,52.90
2023-02-05T10:14:33.591Z,53.60
2023-02-05T10:17:29.666Z,54.00
2023-02-05T10:20:13.841Z,54.30
2023-02-05T10:22:55.479Z,54.40
2023-02-05T10:25:36.130Z,53.90
2023-02-05T10:28:16.016Z,54.20
2023-02-05T10:30:51.144Z,54.10
2023-02-05T10:33:28.747Z,53.90
2023-02-05T10:36:02.252Z,53.20
2023-02-05T10:38:34.833Z,53.90
2023-02-05T10:41:08.648Z,53.60
2023-02-05T10:43:45.004Z,53.80
2023-02-05T10:46:15.862Z,54.20
2023-02-05T10:48:47.285Z,54.70
2023-02-05T10:51:20.909Z,54.80
2023-02-05T10:53:49.256Z,54.70
2023-02-05T10:56:19.951Z,54.00
2023-02-05T10:58:54.795Z,54.20
2023-02-05T11:01:25.039Z,54.00
2023-02-05T11:03:57.854Z,53.60
2023-02-05T11:06:29.430Z,53.80
2023-02-05T11:08:57.943Z,53.90
2023-02-05T11:11:29.522Z,53.40
2023-02-05T11:14:01.258Z,53.90
2023-02-05T11:16:39.751Z,53.40
2023-02-05T11:19:20.769Z,53.30
2023-02-05T11:21:52.045Z,53.40
2023-02-05T11:24:32.782Z,53.80
2023-02-05T11:27:30.850Z,54.00
2023-02-05T11:30:37.689Z,53.70
2023-02-05T11:33:30.801Z,53.20
2023-02-05T11:36:02.981Z,53.70
2023-02-05T11:38:43.218Z,52.90
2023-02-05T11:41:14.046Z,52.50
2023-02-05T11:43:47.864Z,52.50
2023-02-05T11:46:20.193Z,52.80
2023-02-05T11:48:57.207Z,52.60
2023-02-05T11:51:42.626Z,52.40
2023-02-05T11:54:20.852Z,52.70
2023-02-05T11:57:08.618Z,52.40
2023-02-05T11:59:37.822Z,52.70
2023-02-05T12:02:31.934Z,52.50
2023-02-05T12:05:07.803Z,52.30
2023-02-05T12:07:40.681Z,52.10
2023-02-05T12:10:17.454Z,51.90
2023-02-05T12:12:54.972Z,52.10
2023-02-05T12:15:27.843Z,51.80
2023-02-05T12:18:07.855Z,52.00
2023-02-05T12:20:41.373Z,51.00
2023-02-05T12:23:31.483Z,51.50
2023-02-05T12:26:27.780Z,51.90
2023-02-05T12:29:09.383Z,51.60
2023-02-05T12:31:49.690Z,51.60
2023-02-05T12:34:28.063Z,51.90
2023-02-05T12:37:20.535Z,51.30
2023-02-05T12:39:54.206Z,50.80
2023-02-05T12:42:33.375Z,51.30
2023-02-05T12:45:20.035Z,51.60
2023-02-05T12:48:02.814Z,51.80
2023-02-05T12:51:03.385Z,51.90
2023-02-05T12:53:49.496Z,52.20
2023-02-05T12:56:37.917Z,51.80
2023-02-05T12:59:12.974Z,51.80
2023-02-05T13:01:46.523Z,51.80
2023-02-05T13:04:24.238Z,52.40
2023-02-05T13:07:00.427Z,52.60
2023-02-05T13:09:37.617Z,52.60
2023-02-05T13:12:10.997Z,52.60
2023-02-05T13:14:43.767Z,52.90
2023-02-05T13:17:18.578Z,52.90
2023-02-05T13:19:50.694Z,53.00
2023-02-05T13:22:41.609Z,53.10
2023-02-05T13:25:38.961Z,53.40
2023-02-05T13:28:42.191Z,52.20
2023-02-05T13:31:23.400Z,52.60
2023-02-05T13:33:52.948Z,52.80
2023-02-05T13:36:57.237Z,52.90
2023-02-05T13:39:52.632Z,53.30
2023-02-05T13:42:48.484Z,53.50
2023-02-05T13:45:41.582Z,53.60
2023-02-05T13:48:34.681Z,53.80
2023-02-05T13:51:23.061Z,53.80
2023-02-05T13:54:22.295Z,53.90
2023-02-05T13:57:05.438Z,53.70
2023-02-05T13:59:39.178Z,54.00
2023-02-05T14:02:32.855Z,54.20
2023-02-05T14:05:03.370Z,54.50
2023-02-05T14:07:34.316Z,54.60
2023-02-05T14:10:03.979Z,54.70
2023-02-05T14:12:36.097Z,54.70
2023-02-05T14:15:25.116Z,54.70
2023-02-05T14:17:56.607Z,55.00
2023-02-05T14:20:39.939Z,55.30
2023-02-05T14:23:17.323Z,55.40
2023-02-05T14:26:11.782Z,55.40
2023-02-05T14:28:53.620Z,55.30
2023-02-05T14:31:47.805Z,55.40
2023-02-05T14:34:54.695Z,56.00
2023-02-05T14:37:34.999Z,56.50
2023-02-05T14:40:27.309Z,56.40
2023-02-05T14:43:10.455Z,56.40
2023-02-05T14:45:47.254Z,56.70
2023-02-05T14:48:23.544Z,56.90
2023-02-05T14:51:09.893Z,56.90
2023-02-05T14:53:39.772Z,57.20
2023-02-05T14:56:08.944Z,57.20
2023-02-05T14:58:40.977Z,57.10
2023-02-05T15:01:42.905Z,57.20
2023-02-05T15:04:25.673Z,57.40
2023-02-05T15:06:55.066Z,57.50
2023-02-05T15:09:30.223Z,57.60
2023-02-05T15:12:17.271Z,57.90
2023-02-05T15:14:53.922Z,58.10
2023-02-05T15:17:52.299Z,58.50
2023-02-05T15:20:23.951Z,58.50
2023-02-05T15:22:57.874Z,58.50
2023-02-05T15:25:37.687Z,58.40
2023-02-05T15:28:11.168Z,58.30
2023-02-05T15:30:49.290Z,58.40
2023-02-05T15:33:26.504Z,58.60
2023-02-05T15:35:56.892Z,58.80
2023-02-05T15:38:33.693Z,59.30
2023-02-05T15:41:07.745Z,59.60
2023-02-05T15:43:36.128Z,59.70
2023-02-05T15:46:07.821Z,59.80
2023-02-05T15:48:39.779Z,59.90
2023-02-05T15:51:29.534Z,60.00
2023-02-05T15:53:59.873Z,60.30
2023-02-05T15:56:32.898Z,60.90
2023-02-05T15:59:13.748Z,61.10
2023-02-05T16:01:46.842Z,61.10
2023-02-05T16:04:20.928Z,61.20
2023-02-05T16:06:49.922Z,61.60
2023-02-05T16:09:19.557Z,61.90
2023-02-05T16:11:51.105Z,61.90
2023-02-05T16:14:21.467Z,62.00
2023-02-05T16:16:59.358Z,62.10
2023-02-05T16:19:34.146Z,62.20
2023-02-05T16:22:08.057Z,62.30
2023-02-05T16:24:39.389Z,62.50
2023-02-05T16:27:13.770Z,62.60
2023-02-05T16:29:48.267Z,62.70
2023-02-05T16:32:22.930Z,62.90
2023-02-05T16:34:52.969Z,62.90
2023-02-05T16:37:30.362Z,62.90
2023-02-05T16:40:01.697Z,63.00
2023-02-05T16:42:37.718Z,64.00
2023-02-05T16:45:22.310Z,64.10
2023-02-05T16:48:21.376Z,64.10
2023-02-05T16:50:52.260Z,64.20
2023-02-05T16:53:26.339Z,64.40
2023-02-05T16:55:59.080Z,64.40
2023-02-05T16:58:34.894Z,65.00
2023-02-05T17:01:04.208Z,65.00
2023-02-05T17:03:37.036Z,65.70
2023-02-05T17:06:13.451Z,65.90
2023-02-05T17:08:45.441Z,65.80
2023-02-05T17:11:35.459Z,66.30
2023-02-05T17:14:22.580Z,67.20
2023-02-05T17:16:56.918Z,67.20
2023-02-05T17:19:27.250Z,67.90
2023-02-05T17:22:22.032Z,68.50
2023-02-05T17:24:52.047Z,68.60
2023-02-05T17:27:28.123Z,68.40
2023-02-05T17:29:56.611Z,68.40
2023-02-05T17:32:25.748Z,68.80
2023-02-05T17:34:54.088Z,69.50
2023-02-05T17:37:23.817Z,69.30
2023-02-05T17:39:56.763Z,69.20
2023-02-05T17:42:27.169Z,69.30
2023-02-05T17:44:56.091Z,69.50
2023-02-05T17:47:24.418Z,69.60
2023-02-05T17:49:52.703Z,69.60
2023-02-05T17:52:21.027Z,70.00
2023-02-05T17:54:50.805Z,70.40
2023-02-05T17:57:21.433Z,70.60
2023-02-05T17:59:50.420Z,71.60
2023-02-05T18:02:19.093Z,71.30
2023-02-05T18:04:47.443Z,72.00
2023-02-05T18:07:22.747Z,71.80
2023-02-05T18:09:52.819Z,71.80
2023-02-05T18:12:21.709Z,72.10
2023-02-05T18:14:50.390Z,71.80
2023-02-05T18:17:18.938Z,72.30
2023-02-05T18:19:47.256Z,72.50
2023-02-05T18:22:15.879Z,72.70
2023-02-05T18:24:44.351Z,72.40
2023-02-05T18:27:14.075Z,72.20
2023-02-05T18:29:43.821Z,72.10
2023-02-05T18:32:12.484Z,72.10
2023-02-05T18:34:41.098Z,72.10
2023-02-05T18:37:09.680Z,72.00
2023-02-05T18:39:37.960Z,71.90
2023-02-05T18:42:06.734Z,72.60
2023-02-05T18:44:36.798Z,72.50
2023-02-05T18:47:06.067Z,72.40
2023-02-05T18:49:34.807Z,72.10
2023-02-05T18:52:03.452Z,72.10
2023-02-05T18:54:31.892Z,72.00
2023-02-05T18:57:00.164Z,71.80
2023-02-05T18:59:31.366Z,71.80
2023-02-05T19:02:01.145Z,72.10
2023-02-05T19:04:33.043Z,72.30
2023-02-05T19:07:01.586Z,72.50
2023-02-05T19:09:30.353Z,72.60
2023-02-05T19:11:58.738Z,72.90
2023-02-05T19:14:27.660Z,73.00
2023-02-05T19:16:56.286Z,73.00
2023-02-05T19:19:27.102Z,73.10
2023-02-05T19:22:00.106Z,73.60
2023-02-05T19:24:28.976Z,73.90
2023-02-05T19:26:59.179Z,73.80
2023-02-05T19:29:27.924Z,74.00
2023-02-05T19:31:57.501Z,74.40
2023-02-05T19:34:29.046Z,74.50
2023-02-05T19:36:59.878Z,74.40
2023-02-05T19:39:28.841Z,74.50
2023-02-05T19:41:57.140Z,74.40
2023-02-05T19:44:27.428Z,74.50
2023-02-05T19:46:56.842Z,75.20
2023-02-05T19:49:26.740Z,75.50
2023-02-05T19:51:56.474Z,75.50
2023-02-05T19:54:24.973Z,75.50
2023-02-05T19:56:53.826Z,75.50
2023-02-05T19:59:22.161Z,75.80
2023-02-05T20:01:50.795Z,76.30
2023-02-05T20:04:24.919Z,77.00
2023-02-05T20:06:58.871Z,76.90
2023-02-05T20:09:28.314Z,76.70
2023-02-05T20:11:56.784Z,76.70
2023-02-05T20:14:25.994Z,76.70
2023-02-05T20:16:54.967Z,76.60
2023-02-05T20:19:23.625Z,76.60
2023-02-05T20:21:52.348Z,76.60
2023-02-05T20:24:22.021Z,76.60
2023-02-05T20:26:53.001Z,76.60
2023-02-05T20:29:38.721Z,76.70
2023-02-05T20:32:08.887Z,76.70
2023-02-05T20:34:39.498Z,76.70
2023-02-05T20:37:09.529Z,76.90
2023-02-05T20:39:42.012Z,77.20
2023-02-05T20:42:13.498Z,78.20
2023-02-05T20:44:42.950Z,78.30
2023-02-05T20:47:13.415Z,78.80
2023-02-05T20:49:42.887Z,79.70
2023-02-05T20:52:12.404Z,79.20
2023-02-05T20:54:42.195Z,79.70
2023-02-05T20:57:10.567Z,79.50
2023-02-05T20:59:38.964Z,79.40
2023-02-05T21:02:07.988Z,79.70
2023-02-05T21:04:37.553Z,79.80
2023-02-05T21:07:09.112Z,79.80
2023-02-05T21:09:37.505Z,80.10
2023-02-05T21:12:07.987Z,80.60
2023-02-05T21:14:36.365Z,80.20
2023-02-05T21:17:04.800Z,80.50
2023-02-05T21:19:33.051Z,81.00
2023-02-05T21:22:01.474Z,80.80
2023-02-05T21:24:29.908Z,80.70
2023-02-05T21:26:58.257Z,80.90
2023-02-05T21:29:28.049Z,81.00
2023-02-05T21:31:56.661Z,80.90
2023-02-05T21:34:26.725Z,80.60
2023-02-05T21:36:56.021Z,80.60
2023-02-05T21:39:25.607Z,80.40
2023-02-05T21:41:54.745Z,80.50
2023-02-05T21:44:23.388Z,80.20
2023-02-05T21:46:55.350Z,80.20
2023-02-05T21:49:23.999Z,80.20
2023-02-05T21:51:53.691Z,79.90
2023-02-05T21:54:25.372Z,79.90
2023-02-05T21:56:54.106Z,79.70
2023-02-05T21:59:22.470Z,79.50
2023-02-05T22:01:52.553Z,79.30
2023-02-05T22:04:20.910Z,79.00
2023-02-05T22:06:52.481Z,78.60
2023-02-05T22:09:20.863Z,78.40
2023-02-05T22:11:51.030Z,78.00
2023-02-05T22:14:19.318Z,77.50
2023-02-05T22:16:47.707Z,76.90
2023-02-05T22:19:17.448Z,76.80
2023-02-05T22:21:45.733Z,76.80
2023-02-05T22:24:16.946Z,75.70
2023-02-05T22:26:46.481Z,75.80
2023-02-05T22:29:16.327Z,76.00
2023-02-05T22:31:45.402Z,76.00
2023-02-05T22:34:13.998Z,75.90
2023-02-05T22:36:43.796Z,75.80
2023-02-05T22:39:12.056Z,75.60
2023-02-05T22:41:43.058Z,75.60
2023-02-05T22:44:13.483Z,74.90
2023-02-05T22:46:43.565Z,75.10
2023-02-05T22:49:15.317Z,74.70
2023-02-05T22:51:46.174Z,74.70
2023-02-05T22:54:15.998Z,74.60
2023-02-05T22:56:44.595Z,74.60
2023-02-05T22:59:13.294Z,74.00
2023-02-05T23:01:41.718Z,73.50
2023-02-05T23:04:11.145Z,73.20
2023-02-05T23:06:41.759Z,72.90
2023-02-05T23:09:14.118Z,73.00
2023-02-05T23:11:43.286Z,72.60
2023-02-05T23:14:12.809Z,73.20
2023-02-05T23:16:42.859Z,72.60
2023-02-05T23:19:13.556Z,72.40
2023-02-05T23:21:42.409Z,72.30
2023-02-05T23:24:12.772Z,72.30
2023-02-05T23:26:43.946Z,73.10
2023-02-05T23:29:14.086Z,72.00
2023-02-05T23:31:42.778Z,72.10
2023-02-05T23:34:11.522Z,72.20
2023-02-05T23:36:40.054Z,72.30
2023-02-05T23:39:08.388Z,72.00
2023-02-05T23:41:39.971Z,72.00
2023-02-05T23:44:12.337Z,71.60
2023-02-05T23:46:41.663Z,71.00
2023-02-05T23:49:10.689Z,71.20
2023-02-05T23:51:39.431Z,70.90
2023-02-05T23:54:08.852Z,70.90
2023-02-05T23:56:38.794Z,71.00
2023-02-05T23:59:07.503Z,70.90
